sensor_id;sensor_type;location;lat;lon;timestamp;temperature;humidity
71173;DHT22;58875;51.996;4.504;2023-02-28T00:00:31;3.10;77.17
71173;DHT22;58875;51.996;4.504;2023-02-28T00:02:57;3.14;77.29
71173;DHT22;58875;51.996;4.504;2023-02-28T00:05:24;3.24;77.43
71173;DHT22;58875;51.996;4.504;2023-02-28T00:07:50;3.27;77.36
71173;DHT22;58875;51.996;4.504;2023-02-28T00:10:22;3.30;77.04
71173;DHT22;58875;51.996;4.504;2023-02-28T00:12:49;3.35;77.31
71173;DHT22;58875;51.996;4.504;2023-02-28T00:15:16;3.42;77.45
71173;DHT22;58875;51.996;4.504;2023-02-28T00:17:42;3.51;77.46
71173;DHT22;58875;51.996;4.504;2023-02-28T00:20:08;3.56;77.55
71173;DHT22;58875;51.996;4.504;2023-02-28T00:22:37;3.68;77.61
71173;DHT22;58875;51.996;4.504;2023-02-28T00:25:04;3.78;77.46
71173;DHT22;58875;51.996;4.504;2023-02-28T00:27:30;3.82;77.23
71173;DHT22;58875;51.996;4.504;2023-02-28T00:29:56;3.90;77.29
71173;DHT22;58875;51.996;4.504;2023-02-28T00:32:24;3.99;76.93
71173;DHT22;58875;51.996;4.504;2023-02-28T00:34:50;4.05;76.96
71173;DHT22;58875;51.996;4.504;2023-02-28T00:37:15;4.10;76.91
71173;DHT22;58875;51.996;4.504;2023-02-28T00:39:41;4.21;76.73
71173;DHT22;58875;51.996;4.504;2023-02-28T00:42:07;4.21;76.48
71173;DHT22;58875;51.996;4.504;2023-02-28T00:44:33;4.30;76.25
71173;DHT22;58875;51.996;4.504;2023-02-28T00:47:00;4.32;76.27
71173;DHT22;58875;51.996;4.504;2023-02-28T00:49:27;4.34;75.84
71173;DHT22;58875;51.996;4.504;2023-02-28T00:51:54;4.33;75.86
71173;DHT22;58875;51.996;4.504;2023-02-28T00:54:20;4.30;75.87
71173;DHT22;58875;51.996;4.504;2023-02-28T00:56:47;4.37;75.81
71173;DHT22;58875;51.996;4.504;2023-02-28T00:59:14;4.41;75.64
71173;DHT22;58875;51.996;4.504;2023-02-28T01:01:40;4.36;75.41
71173;DHT22;58875;51.996;4.504;2023-02-28T01:04:06;4.41;75.50
71173;DHT22;58875;51.996;4.504;2023-02-28T01:06:32;4.48;75.46
71173;DHT22;58875;51.996;4.504;2023-02-28T01:08:58;4.48;75.16
71173;DHT22;58875;51.996;4.504;2023-02-28T01:11:24;4.48;75.11
71173;DHT22;58875;51.996;4.504;2023-02-28T01:13:50;4.44;75.40
71173;DHT22;58875;51.996;4.504;2023-02-28T01:16:16;4.47;75.40
71173;DHT22;58875;51.996;4.504;2023-02-28T01:18:41;4.43;75.60
71173;DHT22;58875;51.996;4.504;2023-02-28T01:21:13;4.46;75.73
71173;DHT22;58875;51.996;4.504;2023-02-28T01:23:40;4.54;75.54
71173;DHT22;58875;51.996;4.504;2023-02-28T01:26:22;4.57;75.60
71173;DHT22;58875;51.996;4.504;2023-02-28T01:28:49;4.60;75.47
71173;DHT22;58875;51.996;4.504;2023-02-28T01:31:17;4.58;75.59
71173;DHT22;58875;51.996;4.504;2023-02-28T01:33:43;4.54;75.59
71173;DHT22;58875;51.996;4.504;2023-02-28T01:36:21;4.51;75.68
71173;DHT22;58875;51.996;4.504;2023-02-28T01:38:48;4.48;75.79
71173;DHT22;58875;51.996;4.504;2023-02-28T01:41:18;4.51;75.65
71173;DHT22;58875;51.996;4.504;2023-02-28T01:46:10;4.51;75.77
71173;DHT22;58875;51.996;4.504;2023-02-28T01:48:42;4.51;75.66
71173;DHT22;58875;51.996;4.504;2023-02-28T01:54:03;4.58;75.47
71173;DHT22;58875;51.996;4.504;2023-02-28T01:56:35;4.64;75.64
71173;DHT22;58875;51.996;4.504;2023-02-28T01:59:02;4.62;75.74
71173;DHT22;58875;51.996;4.504;2023-02-28T02:01:29;4.69;75.70
71173;DHT22;58875;51.996;4.504;2023-02-28T02:03:59;4.72;75.70
71173;DHT22;58875;51.996;4.504;2023-02-28T02:06:29;4.68;75.76
71173;DHT22;58875;51.996;4.504;2023-02-28T02:08:56;4.71;75.89
71173;DHT22;58875;51.996;4.504;2023-02-28T02:11:25;4.77;75.77
71173;DHT22;58875;51.996;4.504;2023-02-28T02:19:52;4.79;75.91
71173;DHT22;58875;51.996;4.504;2023-02-28T02:22:53;4.78;76.28
71173;DHT22;58875;51.996;4.504;2023-02-28T02:25:51;4.74;76.53
71173;DHT22;58875;51.996;4.504;2023-02-28T02:28:45;4.74;76.79
71173;DHT22;58875;51.996;4.504;2023-02-28T02:36:35;4.74;77.30
71173;DHT22;58875;51.996;4.504;2023-02-28T02:39:16;4.69;77.50
71173;DHT22;58875;51.996;4.504;2023-02-28T02:41:56;4.68;77.53
71173;DHT22;58875;51.996;4.504;2023-02-28T02:46:59;4.78;77.39
71173;DHT22;58875;51.996;4.504;2023-02-28T02:49:32;4.81;77.44
71173;DHT22;58875;51.996;4.504;2023-02-28T02:52:05;4.89;77.09
71173;DHT22;58875;51.996;4.504;2023-02-28T02:54:36;4.81;77.23
71173;DHT22;58875;51.996;4.504;2023-02-28T02:57:12;4.82;77.20
71173;DHT22;58875;51.996;4.504;2023-02-28T02:59:42;4.84;77.36
71173;DHT22;58875;51.996;4.504;2023-02-28T03:02:13;4.87;77.19
71173;DHT22;58875;51.996;4.504;2023-02-28T03:04:51;4.85;77.44
71173;DHT22;58875;51.996;4.504;2023-02-28T03:07:17;4.87;77.54
71173;DHT22;58875;51.996;4.504;2023-02-28T03:09:53;4.89;77.32
71173;DHT22;58875;51.996;4.504;2023-02-28T03:12:20;4.93;77.26
71173;DHT22;58875;51.996;4.504;2023-02-28T03:22:52;5.11;76.87
71173;DHT22;58875;51.996;4.504;2023-02-28T03:25:29;5.12;76.89
71173;DHT22;58875;51.996;4.504;2023-02-28T03:35:54;5.13;77.10
71173;DHT22;58875;51.996;4.504;2023-02-28T03:38:27;5.09;77.46
71173;DHT22;58875;51.996;4.504;2023-02-28T03:41:14;5.11;77.75
71173;DHT22;58875;51.996;4.504;2023-02-28T03:43:47;4.95;78.07
71173;DHT22;58875;51.996;4.504;2023-02-28T03:46:21;4.95;78.45
71173;DHT22;58875;51.996;4.504;2023-02-28T03:49:34;4.91;78.68
71173;DHT22;58875;51.996;4.504;2023-02-28T03:51:43;4.91;78.80
71173;DHT22;58875;51.996;4.504;2023-02-28T03:54:30;4.89;79.06
71173;DHT22;58875;51.996;4.504;2023-02-28T03:59:39;4.93;79.03
71173;DHT22;58875;51.996;4.504;2023-02-28T04:02:05;4.95;79.17
71173;DHT22;58875;51.996;4.504;2023-02-28T04:04:31;4.99;79.10
71173;DHT22;58875;51.996;4.504;2023-02-28T04:07:03;4.98;79.21
71173;DHT22;58875;51.996;4.504;2023-02-28T04:09:28;4.92;79.42
71173;DHT22;58875;51.996;4.504;2023-02-28T04:11:54;4.92;79.55
71173;DHT22;58875;51.996;4.504;2023-02-28T04:14:23;4.98;79.46
71173;DHT22;58875;51.996;4.504;2023-02-28T04:16:49;5.02;79.40
71173;DHT22;58875;51.996;4.504;2023-02-28T04:19:16;4.99;79.47
71173;DHT22;58875;51.996;4.504;2023-02-28T04:21:52;5.05;79.24
71173;DHT22;58875;51.996;4.504;2023-02-28T04:24:24;5.05;78.91
71173;DHT22;58875;51.996;4.504;2023-02-28T04:26:52;4.98;79.02
71173;DHT22;58875;51.996;4.504;2023-02-28T04:29:21;5.07;78.72
71173;DHT22;58875;51.996;4.504;2023-02-28T04:31:47;5.08;78.78
71173;DHT22;58875;51.996;4.504;2023-02-28T04:34:13;5.08;78.55
71173;DHT22;58875;51.996;4.504;2023-02-28T04:36:39;5.04;78.09
71173;DHT22;58875;51.996;4.504;2023-02-28T04:39:04;4.99;78.36
71173;DHT22;58875;51.996;4.504;2023-02-28T04:41:30;4.99;78.05
71173;DHT22;58875;51.996;4.504;2023-02-28T04:43:55;5.08;77.93
71173;DHT22;58875;51.996;4.504;2023-02-28T04:46:24;5.12;77.96
71173;DHT22;58875;51.996;4.504;2023-02-28T04:48:50;5.09;77.80
71173;DHT22;58875;51.996;4.504;2023-02-28T04:51:18;5.15;77.38
71173;DHT22;58875;51.996;4.504;2023-02-28T04:53:44;5.09;77.40
71173;DHT22;58875;51.996;4.504;2023-02-28T04:56:15;5.13;77.23
71173;DHT22;58875;51.996;4.504;2023-02-28T04:58:41;5.07;77.24
71173;DHT22;58875;51.996;4.504;2023-02-28T05:01:28;5.15;76.95
71173;DHT22;58875;51.996;4.504;2023-02-28T05:03:57;5.13;77.03
71173;DHT22;58875;51.996;4.504;2023-02-28T05:06:25;5.08;77.22
71173;DHT22;58875;51.996;4.504;2023-02-28T05:08:51;5.08;77.06
71173;DHT22;58875;51.996;4.504;2023-02-28T05:11:31;4.95;76.54
71173;DHT22;58875;51.996;4.504;2023-02-28T05:14:11;4.88;76.57
71173;DHT22;58875;51.996;4.504;2023-02-28T05:16:39;4.85;76.35
71173;DHT22;58875;51.996;4.504;2023-02-28T05:19:05;4.78;76.50
71173;DHT22;58875;51.996;4.504;2023-02-28T05:21:33;4.77;75.82
71173;DHT22;58875;51.996;4.504;2023-02-28T05:24:05;4.79;75.90
71173;DHT22;58875;51.996;4.504;2023-02-28T05:26:35;4.77;75.78
71173;DHT22;58875;51.996;4.504;2023-02-28T05:29:01;4.68;76.14
71173;DHT22;58875;51.996;4.504;2023-02-28T05:31:26;4.64;75.70
71173;DHT22;58875;51.996;4.504;2023-02-28T05:33:52;4.65;75.72
71173;DHT22;58875;51.996;4.504;2023-02-28T05:36:17;4.67;75.36
71173;DHT22;58875;51.996;4.504;2023-02-28T05:38:46;4.77;75.12
71173;DHT22;58875;51.996;4.504;2023-02-28T05:41:12;4.74;74.71
71173;DHT22;58875;51.996;4.504;2023-02-28T05:43:40;4.71;74.62
71173;DHT22;58875;51.996;4.504;2023-02-28T05:46:08;4.75;74.47
71173;DHT22;58875;51.996;4.504;2023-02-28T05:48:36;4.79;74.54
71173;DHT22;58875;51.996;4.504;2023-02-28T05:51:03;4.84;74.43
71173;DHT22;58875;51.996;4.504;2023-02-28T05:53:29;4.79;74.50
71173;DHT22;58875;51.996;4.504;2023-02-28T05:55:55;4.81;74.13
71173;DHT22;58875;51.996;4.504;2023-02-28T05:58:24;4.74;74.09
71173;DHT22;58875;51.996;4.504;2023-02-28T06:00:57;4.72;74.37
71173;DHT22;58875;51.996;4.504;2023-02-28T06:03:23;4.71;74.64
71173;DHT22;58875;51.996;4.504;2023-02-28T06:05:48;4.71;74.86
71173;DHT22;58875;51.996;4.504;2023-02-28T06:08:14;4.60;74.90
71173;DHT22;58875;51.996;4.504;2023-02-28T06:10:40;4.54;75.36
71173;DHT22;58875;51.996;4.504;2023-02-28T06:13:05;4.58;75.37
71173;DHT22;58875;51.996;4.504;2023-02-28T06:15:31;4.57;75.27
71173;DHT22;58875;51.996;4.504;2023-02-28T06:17:57;4.50;75.22
71173;DHT22;58875;51.996;4.504;2023-02-28T06:20:25;4.32;74.65
71173;DHT22;58875;51.996;4.504;2023-02-28T06:22:55;4.11;73.74
71173;DHT22;58875;51.996;4.504;2023-02-28T06:25:22;4.03;73.91
71173;DHT22;58875;51.996;4.504;2023-02-28T06:27:47;4.06;74.35
71173;DHT22;58875;51.996;4.504;2023-02-28T06:30:13;3.99;74.46
71173;DHT22;58875;51.996;4.504;2023-02-28T06:32:39;3.92;74.18
71173;DHT22;58875;51.996;4.504;2023-02-28T06:35:05;3.93;73.94
71173;DHT22;58875;51.996;4.504;2023-02-28T06:37:31;3.90;73.85
71173;DHT22;58875;51.996;4.504;2023-02-28T06:39:57;3.76;72.56
71173;DHT22;58875;51.996;4.504;2023-02-28T06:42:23;3.74;73.01
71173;DHT22;58875;51.996;4.504;2023-02-28T06:44:55;3.75;72.38
71173;DHT22;58875;51.996;4.504;2023-02-28T06:47:21;3.76;72.77
71173;DHT22;58875;51.996;4.504;2023-02-28T06:49:47;3.82;72.86
71173;DHT22;58875;51.996;4.504;2023-02-28T06:52:14;3.86;72.58
71173;DHT22;58875;51.996;4.504;2023-02-28T06:54:42;3.83;72.45
71173;DHT22;58875;51.996;4.504;2023-02-28T06:57:08;3.74;72.70
71173;DHT22;58875;51.996;4.504;2023-02-28T06:59:33;3.69;73.51
71173;DHT22;58875;51.996;4.504;2023-02-28T07:02:00;3.54;74.30
71173;DHT22;58875;51.996;4.504;2023-02-28T07:04:27;3.51;75.31
71173;DHT22;58875;51.996;4.504;2023-02-28T07:06:53;3.45;75.96
71173;DHT22;58875;51.996;4.504;2023-02-28T07:09:21;3.45;76.77
71173;DHT22;58875;51.996;4.504;2023-02-28T07:11:49;3.39;77.54
71173;DHT22;58875;51.996;4.504;2023-02-28T07:14:14;3.38;78.35
71173;DHT22;58875;51.996;4.504;2023-02-28T07:16:40;3.38;78.68
71173;DHT22;58875;51.996;4.504;2023-02-28T07:19:05;3.28;79.16
71173;DHT22;58875;51.996;4.504;2023-02-28T07:21:31;3.15;79.40
71173;DHT22;58875;51.996;4.504;2023-02-28T07:23:57;3.08;79.87
71173;DHT22;58875;51.996;4.504;2023-02-28T07:26:23;3.10;80.08
71173;DHT22;58875;51.996;4.504;2023-02-28T07:28:49;3.06;80.43
71173;DHT22;58875;51.996;4.504;2023-02-28T07:31:16;3.03;80.51
71173;DHT22;58875;51.996;4.504;2023-02-28T07:33:43;3.04;80.75
71173;DHT22;58875;51.996;4.504;2023-02-28T07:36:14;2.97;80.89
71173;DHT22;58875;51.996;4.504;2023-02-28T07:38:42;2.99;81.36
71173;DHT22;58875;51.996;4.504;2023-02-28T07:41:08;2.97;81.40
71173;DHT22;58875;51.996;4.504;2023-02-28T07:43:34;2.97;81.49
71173;DHT22;58875;51.996;4.504;2023-02-28T07:46:19;2.92;81.68
71173;DHT22;58875;51.996;4.504;2023-02-28T07:48:46;2.90;82.00
71173;DHT22;58875;51.996;4.504;2023-02-28T07:51:12;2.92;81.78
71173;DHT22;58875;51.996;4.504;2023-02-28T07:53:38;2.84;81.77
71173;DHT22;58875;51.996;4.504;2023-02-28T07:56:03;2.86;81.89
71173;DHT22;58875;51.996;4.504;2023-02-28T07:58:30;2.96;82.15
71173;DHT22;58875;51.996;4.504;2023-02-28T08:01:16;2.94;81.83
71173;DHT22;58875;51.996;4.504;2023-02-28T08:03:43;2.94;81.75
71173;DHT22;58875;51.996;4.504;2023-02-28T08:06:19;2.92;81.76
71173;DHT22;58875;51.996;4.504;2023-02-28T08:08:45;2.96;81.86
71173;DHT22;58875;51.996;4.504;2023-02-28T08:11:11;2.99;81.93
71173;DHT22;58875;51.996;4.504;2023-02-28T08:13:36;3.01;82.06
71173;DHT22;58875;51.996;4.504;2023-02-28T08:16:11;3.11;81.94
71173;DHT22;58875;51.996;4.504;2023-02-28T08:18:40;3.07;81.73
71173;DHT22;58875;51.996;4.504;2023-02-28T08:21:10;3.11;81.97
71173;DHT22;58875;51.996;4.504;2023-02-28T08:23:36;3.15;81.87
71173;DHT22;58875;51.996;4.504;2023-02-28T08:26:03;3.14;81.91
71173;DHT22;58875;51.996;4.504;2023-02-28T08:28:28;3.23;82.12
71173;DHT22;58875;51.996;4.504;2023-02-28T08:30:54;3.27;81.92
71173;DHT22;58875;51.996;4.504;2023-02-28T08:33:24;3.35;81.75
71173;DHT22;58875;51.996;4.504;2023-02-28T08:36:02;3.38;81.38
71173;DHT22;58875;51.996;4.504;2023-02-28T08:38:27;3.31;81.42
71173;DHT22;58875;51.996;4.504;2023-02-28T08:41:02;3.28;81.88
71173;DHT22;58875;51.996;4.504;2023-02-28T08:43:28;3.31;81.80
71173;DHT22;58875;51.996;4.504;2023-02-28T08:45:55;3.31;82.15
71173;DHT22;58875;51.996;4.504;2023-02-28T08:48:29;3.30;82.25
71173;DHT22;58875;51.996;4.504;2023-02-28T08:51:02;3.38;82.09
71173;DHT22;58875;51.996;4.504;2023-02-28T08:57:07;3.48;81.67
71173;DHT22;58875;51.996;4.504;2023-02-28T09:02:42;3.42;82.19
71173;DHT22;58875;51.996;4.504;2023-02-28T09:05:11;3.45;82.18
71173;DHT22;58875;51.996;4.504;2023-02-28T09:11:07;3.50;82.08
71173;DHT22;58875;51.996;4.504;2023-02-28T09:13:42;3.52;82.07
71173;DHT22;58875;51.996;4.504;2023-02-28T09:16:13;3.64;82.35
71173;DHT22;58875;51.996;4.504;2023-02-28T09:18:47;3.82;82.47
71173;DHT22;58875;51.996;4.504;2023-02-28T09:21:20;3.96;81.98
71173;DHT22;58875;51.996;4.504;2023-02-28T09:23:48;4.07;81.79
71173;DHT22;58875;51.996;4.504;2023-02-28T09:26:21;4.16;81.55
71173;DHT22;58875;51.996;4.504;2023-02-28T09:31:43;4.32;81.13
71173;DHT22;58875;51.996;4.504;2023-02-28T09:34:09;4.37;81.07
71173;DHT22;58875;51.996;4.504;2023-02-28T09:36:35;4.43;81.14
71173;DHT22;58875;51.996;4.504;2023-02-28T09:39:02;4.50;81.00
71173;DHT22;58875;51.996;4.504;2023-02-28T09:41:37;4.60;80.28
71173;DHT22;58875;51.996;4.504;2023-02-28T09:44:13;4.62;80.43
71173;DHT22;58875;51.996;4.504;2023-02-28T09:46:44;4.57;78.37
71173;DHT22;58875;51.996;4.504;2023-02-28T09:49:34;4.54;76.43
71173;DHT22;58875;51.996;4.504;2023-02-28T09:52:05;4.47;78.21
71173;DHT22;58875;51.996;4.504;2023-02-28T09:54:36;4.62;78.19
71173;DHT22;58875;51.996;4.504;2023-02-28T09:59:32;4.50;78.41
71173;DHT22;58875;51.996;4.504;2023-02-28T10:04:58;4.43;78.42
71173;DHT22;58875;51.996;4.504;2023-02-28T10:10:20;4.33;78.91
71173;DHT22;58875;51.996;4.504;2023-02-28T10:12:52;4.46;78.70
71173;DHT22;58875;51.996;4.504;2023-02-28T10:15:23;4.61;79.26
71173;DHT22;58875;51.996;4.504;2023-02-28T10:17:58;4.77;78.71
71173;DHT22;58875;51.996;4.504;2023-02-28T10:20:28;4.65;76.61
71173;DHT22;58875;51.996;4.504;2023-02-28T10:25:38;4.65;76.02
71173;DHT22;58875;51.996;4.504;2023-02-28T10:30:32;4.79;75.62
71173;DHT22;58875;51.996;4.504;2023-02-28T10:32:58;4.91;76.04
71173;DHT22;58875;51.996;4.504;2023-02-28T10:35:25;4.88;73.45
71173;DHT22;58875;51.996;4.504;2023-02-28T10:37:55;4.87;72.83
71173;DHT22;58875;51.996;4.504;2023-02-28T10:42:57;4.91;70.51
71173;DHT22;58875;51.996;4.504;2023-02-28T10:45:24;4.89;71.19
71173;DHT22;58875;51.996;4.504;2023-02-28T10:47:59;5.16;72.59
71173;DHT22;58875;51.996;4.504;2023-02-28T11:03:45;5.91;65.23
71173;DHT22;58875;51.996;4.504;2023-02-28T11:06:19;5.95;65.69
71173;DHT22;58875;51.996;4.504;2023-02-28T11:08:53;6.00;62.77
71173;DHT22;58875;51.996;4.504;2023-02-28T11:11:25;6.10;64.48
71173;DHT22;58875;51.996;4.504;2023-02-28T11:14:04;6.04;62.10
71173;DHT22;58875;51.996;4.504;2023-02-28T11:16:37;6.22;63.30
71173;DHT22;58875;51.996;4.504;2023-02-28T11:19:06;6.41;61.74
71173;DHT22;58875;51.996;4.504;2023-02-28T11:21:51;6.48;62.26
71173;DHT22;58875;51.996;4.504;2023-02-28T11:24:27;6.50;63.32
71173;DHT22;58875;51.996;4.504;2023-02-28T11:26:54;6.59;59.99
71173;DHT22;58875;51.996;4.504;2023-02-28T11:29:23;6.66;57.17
71173;DHT22;58875;51.996;4.504;2023-02-28T11:32:20;6.56;57.27
71173;DHT22;58875;51.996;4.504;2023-02-28T11:35:00;6.75;56.87
71173;DHT22;58875;51.996;4.504;2023-02-28T11:37:28;6.84;55.09
71173;DHT22;58875;51.996;4.504;2023-02-28T11:39:56;6.75;53.09
71173;DHT22;58875;51.996;4.504;2023-02-28T11:45:34;6.41;51.69
71173;DHT22;58875;51.996;4.504;2023-02-28T11:48:25;6.57;52.56
71173;DHT22;58875;51.996;4.504;2023-02-28T11:51:04;6.80;51.90
71173;DHT22;58875;51.996;4.504;2023-02-28T12:05:02;7.17;49.26
71173;DHT22;58875;51.996;4.504;2023-02-28T12:10:29;7.04;50.12
71173;DHT22;58875;51.996;4.504;2023-02-28T12:13:23;7.15;47.79
71173;DHT22;58875;51.996;4.504;2023-02-28T12:24:38;7.30;48.07
71173;DHT22;58875;51.996;4.504;2023-02-28T12:27:11;7.36;47.12
71173;DHT22;58875;51.996;4.504;2023-02-28T12:29:52;7.38;49.97
71173;DHT22;58875;51.996;4.504;2023-02-28T12:32:30;7.55;48.18
71173;DHT22;58875;51.996;4.504;2023-02-28T12:35:06;7.65;48.64
71173;DHT22;58875;51.996;4.504;2023-02-28T12:37:52;7.76;46.96
71173;DHT22;58875;51.996;4.504;2023-02-28T12:40:23;7.90;47.76
71173;DHT22;58875;51.996;4.504;2023-02-28T12:43:04;8.04;48.01
71173;DHT22;58875;51.996;4.504;2023-02-28T12:45:55;8.14;46.67
71173;DHT22;58875;51.996;4.504;2023-02-28T12:48:40;8.12;46.52
71173;DHT22;58875;51.996;4.504;2023-02-28T12:51:09;7.92;44.76
71173;DHT22;58875;51.996;4.504;2023-02-28T12:59:12;7.89;44.26
71173;DHT22;58875;51.996;4.504;2023-02-28T13:05:06;7.83;44.71
71173;DHT22;58875;51.996;4.504;2023-02-28T13:10:00;7.69;43.67
71173;DHT22;58875;51.996;4.504;2023-02-28T13:12:27;7.55;43.45
71173;DHT22;58875;51.996;4.504;2023-02-28T13:15:08;7.65;44.30
71173;DHT22;58875;51.996;4.504;2023-02-28T13:17:41;7.89;42.88
71173;DHT22;58875;51.996;4.504;2023-02-28T13:20:20;7.79;43.04
71173;DHT22;58875;51.996;4.504;2023-02-28T13:22:49;7.73;45.05
71173;DHT22;58875;51.996;4.504;2023-02-28T13:27:49;8.22;45.96
71173;DHT22;58875;51.996;4.504;2023-02-28T13:38:46;8.12;43.28
71173;DHT22;58875;51.996;4.504;2023-02-28T13:47:22;8.04;43.27
71173;DHT22;58875;51.996;4.504;2023-02-28T13:54:40;8.17;43.56
71173;DHT22;58875;51.996;4.504;2023-02-28T13:57:32;8.33;41.86
71173;DHT22;58875;51.996;4.504;2023-02-28T14:05:27;8.36;42.87
71173;DHT22;58875;51.996;4.504;2023-02-28T14:07:58;8.45;43.63
71173;DHT22;58875;51.996;4.504;2023-02-28T14:10:28;8.44;41.98
71173;DHT22;58875;51.996;4.504;2023-02-28T14:12:59;8.29;41.43
71173;DHT22;58875;51.996;4.504;2023-02-28T14:15:39;8.04;42.42
71173;DHT22;58875;51.996;4.504;2023-02-28T14:18:17;7.90;42.74
71173;DHT22;58875;51.996;4.504;2023-02-28T14:20:46;7.90;42.90
71173;DHT22;58875;51.996;4.504;2023-02-28T14:23:21;8.06;42.66
71173;DHT22;58875;51.996;4.504;2023-02-28T14:26:19;8.10;43.11
71173;DHT22;58875;51.996;4.504;2023-02-28T14:35:16;8.12;43.76
71173;DHT22;58875;51.996;4.504;2023-02-28T14:37:44;8.13;44.14
71173;DHT22;58875;51.996;4.504;2023-02-28T14:40:21;8.14;42.78
71173;DHT22;58875;51.996;4.504;2023-02-28T14:42:55;8.16;42.63
71173;DHT22;58875;51.996;4.504;2023-02-28T14:45:22;8.07;42.78
71173;DHT22;58875;51.996;4.504;2023-02-28T14:47:52;8.09;41.96
71173;DHT22;58875;51.996;4.504;2023-02-28T14:50:23;8.20;42.00
71173;DHT22;58875;51.996;4.504;2023-02-28T14:52:55;8.36;42.46
71173;DHT22;58875;51.996;4.504;2023-02-28T14:55:36;8.48;42.68
71173;DHT22;58875;51.996;4.504;2023-02-28T14:58:06;8.44;41.74
71173;DHT22;58875;51.996;4.504;2023-02-28T15:00:40;8.29;40.87
71173;DHT22;58875;51.996;4.504;2023-02-28T15:06:01;8.07;40.48
71173;DHT22;58875;51.996;4.504;2023-02-28T15:08:28;8.06;40.72
71173;DHT22;58875;51.996;4.504;2023-02-28T15:11:05;8.13;39.85
71173;DHT22;58875;51.996;4.504;2023-02-28T15:13:50;8.17;42.31
71173;DHT22;58875;51.996;4.504;2023-02-28T15:16:39;8.23;40.58
71173;DHT22;58875;51.996;4.504;2023-02-28T15:19:30;8.40;41.01
71173;DHT22;58875;51.996;4.504;2023-02-28T15:22:15;8.54;40.38
71173;DHT22;58875;51.996;4.504;2023-02-28T15:24:44;8.51;39.37
71173;DHT22;58875;51.996;4.504;2023-02-28T15:27:22;8.30;39.79
71173;DHT22;58875;51.996;4.504;2023-02-28T15:29:53;8.30;39.23
71173;DHT22;58875;51.996;4.504;2023-02-28T15:32:29;8.40;40.56
71173;DHT22;58875;51.996;4.504;2023-02-28T15:34:57;8.44;39.35
71173;DHT22;58875;51.996;4.504;2023-02-28T15:37:44;8.43;39.96
71173;DHT22;58875;51.996;4.504;2023-02-28T15:40:16;8.23;41.57
71173;DHT22;58875;51.996;4.504;2023-02-28T15:42:43;8.29;40.76
71173;DHT22;58875;51.996;4.504;2023-02-28T15:45:35;8.23;40.25
71173;DHT22;58875;51.996;4.504;2023-02-28T15:48:05;8.14;40.30
71173;DHT22;58875;51.996;4.504;2023-02-28T15:50:33;8.03;41.56
71173;DHT22;58875;51.996;4.504;2023-02-28T15:53:00;8.03;42.99
71173;DHT22;58875;51.996;4.504;2023-02-28T15:55:29;8.12;43.00
71173;DHT22;58875;51.996;4.504;2023-02-28T15:58:02;8.06;41.75
71173;DHT22;58875;51.996;4.504;2023-02-28T16:00:29;7.96;41.21
71173;DHT22;58875;51.996;4.504;2023-02-28T16:02:55;7.83;41.99
71173;DHT22;58875;51.996;4.504;2023-02-28T16:05:26;7.68;45.64
71173;DHT22;58875;51.996;4.504;2023-02-28T16:08:11;7.61;46.03
71173;DHT22;58875;51.996;4.504;2023-02-28T16:10:38;7.52;48.30
71173;DHT22;58875;51.996;4.504;2023-02-28T16:13:04;7.40;47.36
71173;DHT22;58875;51.996;4.504;2023-02-28T16:15:37;7.28;47.69
71173;DHT22;58875;51.996;4.504;2023-02-28T16:18:10;7.13;49.04
71173;DHT22;58875;51.996;4.504;2023-02-28T16:20:36;7.10;49.07
71173;DHT22;58875;51.996;4.504;2023-02-28T16:23:02;7.00;50.04
71173;DHT22;58875;51.996;4.504;2023-02-28T16:25:40;6.94;49.26
71173;DHT22;58875;51.996;4.504;2023-02-28T16:28:30;6.91;50.53
71173;DHT22;58875;51.996;4.504;2023-02-28T16:31:00;6.94;51.71
71173;DHT22;58875;51.996;4.504;2023-02-28T16:33:28;6.90;53.14
71173;DHT22;58875;51.996;4.504;2023-02-28T16:35:53;6.86;53.81
71173;DHT22;58875;51.996;4.504;2023-02-28T16:38:19;6.76;53.88
71173;DHT22;58875;51.996;4.504;2023-02-28T16:40:45;6.73;54.55
71173;DHT22;58875;51.996;4.504;2023-02-28T16:43:18;6.70;53.52
71173;DHT22;58875;51.996;4.504;2023-02-28T16:45:47;6.69;53.70
71173;DHT22;58875;51.996;4.504;2023-02-28T16:48:15;6.57;54.13
71173;DHT22;58875;51.996;4.504;2023-02-28T16:50:47;6.53;54.89
71173;DHT22;58875;51.996;4.504;2023-02-28T16:53:15;6.48;55.11
71173;DHT22;58875;51.996;4.504;2023-02-28T16:55:49;6.43;54.91
71173;DHT22;58875;51.996;4.504;2023-02-28T16:58:16;6.38;54.83
71173;DHT22;58875;51.996;4.504;2023-02-28T17:00:42;6.31;55.29
71173;DHT22;58875;51.996;4.504;2023-02-28T17:03:27;6.24;55.77
71173;DHT22;58875;51.996;4.504;2023-02-28T17:05:54;6.17;56.37
71173;DHT22;58875;51.996;4.504;2023-02-28T17:08:23;6.11;56.63
71173;DHT22;58875;51.996;4.504;2023-02-28T17:10:49;6.05;56.81
71173;DHT22;58875;51.996;4.504;2023-02-28T17:13:14;6.05;56.89
71173;DHT22;58875;51.996;4.504;2023-02-28T17:15:41;6.00;57.69
71173;DHT22;58875;51.996;4.504;2023-02-28T17:18:13;5.98;57.69
71173;DHT22;58875;51.996;4.504;2023-02-28T17:20:40;5.81;58.54
71173;DHT22;58875;51.996;4.504;2023-02-28T17:23:07;5.81;58.82
71173;DHT22;58875;51.996;4.504;2023-02-28T17:25:33;5.78;58.94
71173;DHT22;58875;51.996;4.504;2023-02-28T17:27:58;5.70;59.57
71173;DHT22;58875;51.996;4.504;2023-02-28T17:30:26;5.64;59.61
71173;DHT22;58875;51.996;4.504;2023-02-28T17:32:53;5.67;59.70
71173;DHT22;58875;51.996;4.504;2023-02-28T17:35:22;5.57;59.75
71173;DHT22;58875;51.996;4.504;2023-02-28T17:37:48;5.54;60.32
71173;DHT22;58875;51.996;4.504;2023-02-28T17:40:21;5.54;60.36
71173;DHT22;58875;51.996;4.504;2023-02-28T17:42:47;5.50;60.56
71173;DHT22;58875;51.996;4.504;2023-02-28T17:45:14;5.43;60.77
71173;DHT22;58875;51.996;4.504;2023-02-28T17:47:43;5.38;60.78
71173;DHT22;58875;51.996;4.504;2023-02-28T17:50:15;5.30;60.78
71173;DHT22;58875;51.996;4.504;2023-02-28T17:52:41;5.26;61.03
71173;DHT22;58875;51.996;4.504;2023-02-28T17:55:08;5.23;61.15
71173;DHT22;58875;51.996;4.504;2023-02-28T17:57:33;5.15;61.31
71173;DHT22;58875;51.996;4.504;2023-02-28T17:59:59;5.16;61.31
71173;DHT22;58875;51.996;4.504;2023-02-28T18:02:24;5.19;61.03
71173;DHT22;58875;51.996;4.504;2023-02-28T18:04:52;5.12;61.11
71173;DHT22;58875;51.996;4.504;2023-02-28T18:07:20;4.98;61.57
71173;DHT22;58875;51.996;4.504;2023-02-28T18:09:47;4.95;61.73
71173;DHT22;58875;51.996;4.504;2023-02-28T18:12:15;4.89;62.06
71173;DHT22;58875;51.996;4.504;2023-02-28T18:14:41;4.85;62.29
71173;DHT22;58875;51.996;4.504;2023-02-28T18:17:09;4.77;62.60
71173;DHT22;58875;51.996;4.504;2023-02-28T18:19:38;4.75;62.61
71173;DHT22;58875;51.996;4.504;2023-02-28T18:22:03;4.74;62.87
71173;DHT22;58875;51.996;4.504;2023-02-28T18:24:32;4.72;62.97
71173;DHT22;58875;51.996;4.504;2023-02-28T18:26:57;4.65;62.93
71173;DHT22;58875;51.996;4.504;2023-02-28T18:29:26;4.64;63.39
71173;DHT22;58875;51.996;4.504;2023-02-28T18:31:54;4.60;63.54
71173;DHT22;58875;51.996;4.504;2023-02-28T18:34:21;4.60;63.79
71173;DHT22;58875;51.996;4.504;2023-02-28T18:36:48;4.57;63.98
71173;DHT22;58875;51.996;4.504;2023-02-28T18:39:15;4.51;64.35